Nules, Spain
Current Conditions -  °F | °C
As of 10:00 PM on Tuesday 21 Oct 2014 (Local Time) from LEBT Reporting Station
Clear Clear  
Wind Chill: 25°   Ceiling: Unl
Heat Index: 25°   Visibility: 6mi
Dew Point:   Wind: 5mph
Humidity: 28%   Direction: 330°NNW
Pressure: 30.15"   Gusts: NA
Location:  39.85°N, 0.16°W
Report Text: LEBT 212000Z AUTO 33004KT 290V020 CAVOK 25/05 Q1021
Loading
Personal Weather Stations






























Interactive Weather Map
Tropical Storm Tracking
New forecast layout! Learn more

10-Day Weather Forecast

Advertisements
Track Severe Weather on mobile